createdAt,value
2023-01-29T00:04:46.652Z,1.20
2023-01-29T00:10:09.119Z,1.40
2023-01-29T00:15:30.795Z,1.92
2023-01-29T00:20:52.524Z,1.50
2023-01-29T00:26:15.047Z,1.90
2023-01-29T00:31:36.954Z,2.15
2023-01-29T00:37:05.130Z,1.55
2023-01-29T00:42:45.429Z,1.90
2023-01-29T00:48:07.224Z,1.83
2023-01-29T00:53:29.611Z,2.10
2023-01-29T00:58:51.346Z,1.85
2023-01-29T01:04:13.601Z,1.98
2023-01-29T01:09:55.206Z,2.10
2023-01-29T01:15:18.035Z,2.05
2023-01-29T01:20:40.148Z,1.80
2023-01-29T01:26:01.928Z,2.30
2023-01-29T01:31:23.753Z,2.25
2023-01-29T01:36:45.770Z,2.28
2023-01-29T01:42:13.299Z,2.60
2023-01-29T01:47:43.808Z,2.35
2023-01-29T01:53:11.031Z,2.00
2023-01-29T01:58:38.395Z,2.50
2023-01-29T02:04:45.275Z,2.50
2023-01-29T02:10:14.153Z,2.33
2023-01-29T02:15:36.106Z,2.33
2023-01-29T02:21:31.475Z,2.42
2023-01-29T02:27:00.393Z,2.38
2023-01-29T02:32:34.512Z,2.58
2023-01-29T02:38:01.819Z,2.47
2023-01-29T02:43:47.579Z,2.40
2023-01-29T02:49:22.028Z,2.35
2023-01-29T02:54:53.023Z,2.33
2023-01-29T03:00:18.772Z,2.10
2023-01-29T03:05:43.604Z,1.83
2023-01-29T03:11:07.320Z,2.50
2023-01-29T03:16:44.095Z,2.45
2023-01-29T03:22:08.650Z,2.33
2023-01-29T03:27:55.266Z,1.98
2023-01-29T03:33:19.537Z,2.15
2023-01-29T03:38:41.405Z,2.30
2023-01-29T03:44:22.112Z,2.40
2023-01-29T03:50:25.693Z,2.10
2023-01-29T03:56:07.276Z,1.95
2023-01-29T04:01:45.287Z,2.25
2023-01-29T04:07:17.655Z,2.80
2023-01-29T04:12:45.963Z,1.95
2023-01-29T04:18:07.691Z,2.53
2023-01-29T04:23:29.411Z,1.92
2023-01-29T04:29:16.636Z,2.00
2023-01-29T04:35:03.484Z,1.90
2023-01-29T04:46:02.504Z,2.00
2023-01-29T04:52:00.619Z,2.25
2023-01-29T04:57:29.824Z,2.00
2023-01-29T05:02:51.739Z,1.75
2023-01-29T05:08:16.370Z,2.10
2023-01-29T05:13:41.931Z,1.75
2023-01-29T05:19:03.745Z,1.98
2023-01-29T05:24:26.947Z,1.70
2023-01-29T05:29:48.804Z,2.00
2023-01-29T05:35:10.494Z,1.80
2023-01-29T05:40:32.248Z,2.10
2023-01-29T05:46:01.099Z,2.10
2023-01-29T05:51:23.208Z,1.80
2023-01-29T05:56:44.866Z,1.88
2023-01-29T06:02:06.743Z,2.03
2023-01-29T06:07:28.452Z,1.90
2023-01-29T06:12:50.233Z,1.77
2023-01-29T06:18:11.941Z,1.80
2023-01-29T06:23:33.745Z,2.08
2023-01-29T06:28:55.495Z,2.08
2023-01-29T06:34:17.244Z,2.08
2023-01-29T06:39:38.927Z,2.08
2023-01-29T06:45:00.920Z,1.55
2023-01-29T06:50:22.789Z,1.70
2023-01-29T06:55:51.015Z,1.65
2023-01-29T07:01:25.447Z,1.73
2023-01-29T07:06:55.135Z,1.50
2023-01-29T07:12:16.879Z,1.60
2023-01-29T07:17:39.631Z,1.70
2023-01-29T07:23:01.394Z,1.50
2023-01-29T07:28:23.128Z,1.50
2023-01-29T07:33:45.072Z,1.60
2023-01-29T07:39:06.749Z,1.70
2023-01-29T07:44:28.524Z,1.98
2023-01-29T07:49:50.207Z,2.20
2023-01-29T07:55:11.935Z,2.15
2023-01-29T08:00:33.714Z,2.03
2023-01-29T08:05:55.416Z,1.80
2023-01-29T08:11:17.355Z,1.92
2023-01-29T08:16:39.189Z,2.15
2023-01-29T08:22:01.439Z,2.22
2023-01-29T08:27:23.180Z,1.88
2023-01-29T08:32:44.920Z,1.88
2023-01-29T08:38:06.898Z,1.70
2023-01-29T08:43:28.565Z,1.83
2023-01-29T08:48:50.296Z,1.73
2023-01-29T08:54:11.993Z,1.58
2023-01-29T08:59:33.706Z,1.70
2023-01-29T09:04:56.007Z,2.30
2023-01-29T09:10:17.814Z,2.20
2023-01-29T09:15:39.500Z,1.60
2023-01-29T09:21:02.789Z,2.13
2023-01-29T09:26:24.608Z,1.80
2023-01-29T09:31:46.697Z,2.22
2023-01-29T09:37:08.515Z,1.58
2023-01-29T09:42:48.789Z,1.95
2023-01-29T09:48:12.786Z,1.40
2023-01-29T09:53:46.169Z,1.65
2023-01-29T09:59:12.830Z,1.40
2023-01-29T10:05:03.463Z,1.52
2023-01-29T10:10:40.084Z,1.77
2023-01-29T10:16:41.742Z,1.40
2023-01-29T10:22:21.454Z,1.27
2023-01-29T10:27:49.960Z,1.40
2023-01-29T10:33:25.520Z,1.63
2023-01-29T10:38:49.357Z,1.47
2023-01-29T10:44:32.020Z,2.00
2023-01-29T10:50:15.737Z,2.40
2023-01-29T10:56:22.672Z,2.47
2023-01-29T11:01:45.171Z,1.98
2023-01-29T11:07:07.040Z,1.70
2023-01-29T11:12:33.593Z,1.58
2023-01-29T11:18:13.458Z,2.30
2023-01-29T11:23:35.138Z,1.42
2023-01-29T11:28:57.150Z,1.88
2023-01-29T11:34:22.166Z,1.60
2023-01-29T11:39:47.361Z,2.10
2023-01-29T11:45:30.086Z,2.78
2023-01-29T11:51:00.736Z,1.70
2023-01-29T11:56:27.238Z,1.90
2023-01-29T12:01:48.980Z,1.98
2023-01-29T12:07:18.785Z,1.90
2023-01-29T12:12:43.210Z,1.55
2023-01-29T12:18:20.309Z,1.60
2023-01-29T12:24:02.237Z,1.77
2023-01-29T12:29:48.136Z,2.00
2023-01-29T12:35:22.672Z,1.80
2023-01-29T12:40:55.376Z,1.92
2023-01-29T12:46:29.519Z,1.67
2023-01-29T12:51:54.753Z,1.80
2023-01-29T12:57:32.276Z,2.80
2023-01-29T13:03:03.755Z,2.28
2023-01-29T13:08:32.722Z,2.63
2023-01-29T13:13:59.612Z,2.15
2023-01-29T13:19:28.620Z,2.90
2023-01-29T13:25:03.640Z,2.85
2023-01-29T13:30:32.933Z,2.95
2023-01-29T13:36:00.380Z,3.28
2023-01-29T13:41:33.450Z,2.97
2023-01-29T13:46:58.171Z,2.50
2023-01-29T13:52:37.002Z,2.30
2023-01-29T13:58:00.688Z,2.13
2023-01-29T14:03:25.113Z,2.55
2023-01-29T14:08:47.635Z,2.72
2023-01-29T14:14:48.321Z,2.53
2023-01-29T14:20:20.685Z,2.63
2023-01-29T14:25:43.037Z,2.15
2023-01-29T14:31:07.675Z,1.92
2023-01-29T14:36:38.529Z,2.13
2023-01-29T14:42:03.193Z,1.70
2023-01-29T14:47:27.680Z,2.13
2023-01-29T14:52:54.117Z,1.50
2023-01-29T14:58:26.302Z,1.65
2023-01-29T15:03:55.621Z,1.73
2023-01-29T15:09:41.995Z,1.50
2023-01-29T15:15:09.880Z,1.40
2023-01-29T15:20:36.895Z,1.50
2023-01-29T15:26:04.870Z,1.40
2023-01-29T15:31:28.629Z,1.33
2023-01-29T15:36:51.185Z,1.80
2023-01-29T15:42:23.659Z,1.35
2023-01-29T15:47:45.426Z,1.40
2023-01-29T15:53:13.147Z,1.10
2023-01-29T15:58:35.146Z,1.50
2023-01-29T16:04:01.249Z,1.20
2023-01-29T16:09:26.303Z,1.40
2023-01-29T16:14:50.656Z,1.88
2023-01-29T16:20:45.693Z,1.48
2023-01-29T16:26:09.643Z,1.80
2023-01-29T16:31:32.752Z,1.92
2023-01-29T16:36:56.360Z,2.50
2023-01-29T16:42:20.209Z,2.30
2023-01-29T16:47:42.062Z,3.75
2023-01-29T16:53:12.504Z,4.68
2023-01-29T16:58:34.988Z,4.55
2023-01-29T17:04:03.126Z,5.32
2023-01-29T17:09:29.978Z,4.30
2023-01-29T17:15:00.875Z,3.53
2023-01-29T17:20:23.371Z,3.58
2023-01-29T17:25:46.574Z,3.05
2023-01-29T17:31:08.842Z,3.10
2023-01-29T17:36:30.724Z,2.80
2023-01-29T17:41:54.522Z,3.15
2023-01-29T17:47:16.258Z,3.55
2023-01-29T17:52:37.930Z,3.47
2023-01-29T17:57:59.656Z,3.70
2023-01-29T18:03:21.696Z,2.65
2023-01-29T18:08:43.416Z,4.18
2023-01-29T18:14:13.541Z,3.92
2023-01-29T18:19:36.227Z,2.92
2023-01-29T18:24:57.913Z,3.15
2023-01-29T18:30:19.696Z,3.28
2023-01-29T18:35:41.364Z,2.72
2023-01-29T18:41:12.352Z,4.18
2023-01-29T18:46:34.092Z,3.35
2023-01-29T18:51:55.936Z,3.38
2023-01-29T18:58:27.713Z,3.22
2023-01-29T19:02:59.697Z,3.35
2023-01-29T19:08:21.364Z,3.05
2023-01-29T19:13:43.200Z,2.42
2023-01-29T19:19:04.894Z,2.80
2023-01-29T19:24:27.695Z,2.83
2023-01-29T19:29:49.395Z,2.78
2023-01-29T19:35:11.169Z,2.40
2023-01-29T19:40:32.936Z,2.38
2023-01-29T19:46:01.156Z,2.30
2023-01-29T19:51:23.503Z,2.88
2023-01-29T19:56:45.636Z,2.30
2023-01-29T20:02:07.406Z,3.00
2023-01-29T20:07:29.142Z,2.88
2023-01-29T20:12:51.386Z,3.08
2023-01-29T20:18:14.382Z,2.10
2023-01-29T20:23:38.644Z,2.63
2023-01-29T20:29:00.535Z,2.60
2023-01-29T20:34:22.505Z,1.98
2023-01-29T20:39:44.187Z,1.67
2023-01-29T20:45:06.458Z,1.90
2023-01-29T20:50:28.411Z,1.88
2023-01-29T20:55:50.138Z,2.20
2023-01-29T21:01:16.914Z,1.60
2023-01-29T21:06:38.675Z,2.05
2023-01-29T21:12:00.517Z,1.60
2023-01-29T21:17:22.229Z,1.40
2023-01-29T21:22:44.232Z,1.45
2023-01-29T21:28:06.418Z,2.00
2023-01-29T21:33:28.179Z,2.22
2023-01-29T21:38:49.915Z,2.15
2023-01-29T21:44:12.453Z,2.20
2023-01-29T21:49:34.213Z,1.50
2023-01-29T21:54:56.126Z,1.95
2023-01-29T22:00:18.867Z,1.98
2023-01-29T22:05:40.912Z,1.90
2023-01-29T22:11:07.208Z,1.98
2023-01-29T22:16:30.033Z,2.08
2023-01-29T22:21:53.117Z,1.75
2023-01-29T22:27:15.499Z,1.63
2023-01-29T22:32:37.470Z,1.70
2023-01-29T22:37:59.310Z,1.70
2023-01-29T22:43:22.131Z,1.45
2023-01-29T22:48:43.979Z,1.60
2023-01-29T22:54:05.713Z,1.50
2023-01-29T22:59:28.069Z,1.55
2023-01-29T23:04:50.513Z,1.45
2023-01-29T23:10:14.832Z,1.50
2023-01-29T23:15:36.710Z,1.80
2023-01-29T23:20:58.584Z,1.70
2023-01-29T23:26:39.304Z,1.45
2023-01-29T23:32:00.995Z,1.60
2023-01-29T23:37:22.920Z,1.65
2023-01-29T23:42:44.727Z,1.40
2023-01-29T23:48:06.698Z,1.25
2023-01-29T23:53:28.422Z,1.20
2023-01-29T23:58:56.875Z,1.50
